地図

経路データ

SID SEASON NUMBER BASIN SUBBASIN NAME ISO_TIME NATURE LAT LON WMO_WIND WMO_PRES WMO_AGENCY TRACK_TYPE DIST2LAND LANDFALL IFLAG USA_AGENCY USA_ATCF_ID USA_LAT USA_LON USA_RECORD USA_STATUS USA_WIND USA_PRES USA_SSHS USA_R34_NE USA_R34_SE USA_R34_SW USA_R34_NW USA_R50_NE USA_R50_SE USA_R50_SW USA_R50_NW USA_R64_NE USA_R64_SE USA_R64_SW USA_R64_NW USA_POCI USA_ROCI USA_RMW USA_EYE TOKYO_LAT TOKYO_LON TOKYO_GRADE TOKYO_WIND TOKYO_PRES TOKYO_R50_DIR TOKYO_R50_LONG TOKYO_R50_SHORT TOKYO_R30_DIR TOKYO_R30_LONG TOKYO_R30_SHORT TOKYO_LAND CMA_LAT CMA_LON CMA_CAT CMA_WIND CMA_PRES HKO_LAT HKO_LON HKO_CAT HKO_WIND HKO_PRES NEWDELHI_LAT NEWDELHI_LON NEWDELHI_GRADE NEWDELHI_WIND NEWDELHI_PRES NEWDELHI_CI NEWDELHI_DP NEWDELHI_POCI REUNION_LAT REUNION_LON REUNION_TYPE REUNION_WIND REUNION_PRES REUNION_TNUM REUNION_CI REUNION_RMW REUNION_R34_NE REUNION_R34_SE REUNION_R34_SW REUNION_R34_NW REUNION_R50_NE REUNION_R50_SE REUNION_R50_SW REUNION_R50_NW REUNION_R64_NE REUNION_R64_SE REUNION_R64_SW REUNION_R64_NW BOM_LAT BOM_LON BOM_TYPE BOM_WIND BOM_PRES BOM_TNUM BOM_CI BOM_RMW BOM_R34_NE BOM_R34_SE BOM_R34_SW BOM_R34_NW BOM_R50_NE BOM_R50_SE BOM_R50_SW BOM_R50_NW BOM_R64_NE BOM_R64_SE BOM_R64_SW BOM_R64_NW BOM_ROCI BOM_POCI BOM_EYE BOM_POS_METHOD BOM_PRES_METHOD NADI_LAT NADI_LON NADI_CAT NADI_WIND NADI_PRES WELLINGTON_LAT WELLINGTON_LON WELLINGTON_WIND WELLINGTON_PRES DS824_LAT DS824_LON DS824_STAGE DS824_WIND DS824_PRES TD9636_LAT TD9636_LON TD9636_STAGE TD9636_WIND TD9636_PRES TD9635_LAT TD9635_LON TD9635_WIND TD9635_PRES TD9635_ROCI NEUMANN_LAT NEUMANN_LON NEUMANN_CLASS NEUMANN_WIND NEUMANN_PRES MLC_LAT MLC_LON MLC_CLASS MLC_WIND MLC_PRES USA_GUST BOM_GUST BOM_GUST_PER REUNION_GUST REUNION_GUST_PER USA_SEAHGT USA_SEARAD_NE USA_SEARAD_SE USA_SEARAD_SW USA_SEARAD_NW STORM_SPEED STORM_DIR
1880233N21089 1880 14 NI BB NOT_NAMED 1880-08-20 00:00:00 TS 20.6000 88.8000 main 112 112 _________O____ -1 20.6000 88.8000 TC 30 0 0
1880233N21089 1880 14 NI BB NOT_NAMED 1880-08-20 03:00:00 TS 20.6000 88.8000 main 112 112 _________PO___ -1 20.6000 88.8000 TC 30 20.6000 88.8000 1 0 0
1880233N21089 1880 14 NI BB NOT_NAMED 1880-08-20 06:00:00 TS 20.6000 88.8000 main 112 112 _________OP___ -1 20.6000 88.8000 TC 30 20.6000 88.8000 1 0 0
1880233N21089 1880 14 NI BB NOT_NAMED 1880-08-20 09:00:00 TS 20.6000 88.8000 main 112 112 _________PP___ -1 20.6000 88.8000 TC 30 20.6000 88.8000 1 0 0
1880233N21089 1880 14 NI BB NOT_NAMED 1880-08-20 12:00:00 TS 20.6000 88.8000 main 112 112 _________OP___ -1 20.6000 88.8000 TC 30 20.6000 88.8000 1 0 0
1880233N21089 1880 14 NI BB NOT_NAMED 1880-08-20 15:00:00 TS 20.6000 88.8000 main 112 112 _________PO___ -1 20.6000 88.8000 TC 30 20.6000 88.8000 1 0 0
1880233N21089 1880 14 NI BB NOT_NAMED 1880-08-20 18:00:00 TS 20.6000 88.8000 main 112 112 _________OP___ -1 20.6000 88.8000 TC 30 20.6000 88.8000 1 0 0
1880233N21089 1880 14 NI BB NOT_NAMED 1880-08-20 21:00:00 TS 20.6000 88.8000 main 112 112 _________PP___ -1 20.6000 88.8000 TC 30 20.6000 88.8000 1 0 0
1880233N21089 1880 14 NI BB NOT_NAMED 1880-08-21 00:00:00 TS 20.6000 88.8000 main 112 112 _________OP___ -1 20.6000 88.8000 TC 30 20.6000 88.8000 1 0 0
1880233N21089 1880 14 NI BB NOT_NAMED 1880-08-21 03:00:00 TS 20.6000 88.8000 main 112 112 _________PO___ -1 20.6000 88.8000 TC 30 20.6000 88.8000 1 0 0
1880233N21089 1880 14 NI BB NOT_NAMED 1880-08-21 06:00:00 TS 20.6000 88.8000 main 112 112 _________OP___ -1 20.6000 88.8000 TC 30 20.6000 88.8000 1 0 0
1880233N21089 1880 14 NI BB NOT_NAMED 1880-08-21 09:00:00 TS 20.6000 88.8000 main 112 112 _________PP___ -1 20.6000 88.8000 TC 30 20.6000 88.8000 1 0 0
1880233N21089 1880 14 NI BB NOT_NAMED 1880-08-21 12:00:00 TS 20.6000 88.8000 main 112 112 _________OP___ -1 20.6000 88.8000 TC 30 20.6000 88.8000 1 0 0
1880233N21089 1880 14 NI BB NOT_NAMED 1880-08-21 15:00:00 TS 20.6000 88.8000 main 112 112 _________PO___ -1 20.6000 88.8000 TC 30 20.6000 88.8000 1 0 105
1880233N21089 1880 14 NI BB NOT_NAMED 1880-08-21 18:00:00 TS 20.5896 88.8364 main 112 111 _________OP___ -1 20.6000 88.8000 TC 30 20.5793 88.8729 1 1 108
1880233N21089 1880 14 NI BB NOT_NAMED 1880-08-21 21:00:00 TS 20.5733 88.8935 main 111 111 _________PP___ -1 20.5849 88.8524 TC 30 20.5618 88.9345 1 0 0
1880233N21089 1880 14 NI BB NOT_NAMED 1880-08-22 00:00:00 TS 20.5817 88.8644 main 111 111 _________OP___ -1 20.6000 88.8000 TC 30 20.5634 88.9289 1 2 287
1880233N21089 1880 14 NI BB NOT_NAMED 1880-08-22 03:00:00 TS 20.6387 88.6662 main 113 100 _________PO___ -1 20.6774 88.5324 TC 30 20.6000 88.8000 1 6 284
1880233N21089 1880 14 NI BB NOT_NAMED 1880-08-22 06:00:00 TS 20.7228 88.2733 main 100 83 _________OP___ -1 20.8000 88.1000 TC 30 20.6455 88.4467 1 9 283
1880233N21089 1880 14 NI BB NOT_NAMED 1880-08-22 09:00:00 TS 20.8260 87.7661 main 83 33 _________PP___ -1 20.9203 87.5574 TC 30 20.7317 87.9747 1 10 285
1880233N21089 1880 14 NI BB NOT_NAMED 1880-08-22 12:00:00 TS 20.9884 87.2327 main 30 0 _________OP___ -1 21.1000 87.0000 TC 30 20.8769 87.4654 1 10 293
1880233N21089 1880 14 NI BB NOT_NAMED 1880-08-22 15:00:00 TS 21.2237 86.7663 main 0 0 _________PO___ -1 21.3475 86.5326 TC 30 21.1000 87.0000 1 10 308
1880233N21089 1880 14 NI BB NOT_NAMED 1880-08-22 18:00:00 TS 21.5806 86.4244 main 0 0 _________OP___ -1 21.7000 86.2000 TC 30 21.4612 86.6489 1 10 327
1880233N21089 1880 14 NI BB NOT_NAMED 1880-08-22 21:00:00 TS 22.0572 86.1957 main 0 0 _________PP___ -1 22.2223 86.0324 TC 30 21.8921 86.3589 1 10 341
1880233N21089 1880 14 NI BB NOT_NAMED 1880-08-23 00:00:00 TS 22.5135 86.0697 main 0 0 _________OP___ -1 22.7000 86.0000 TC 30 22.3270 86.1394 1 8 348
1880233N21089 1880 14 NI BB NOT_NAMED 1880-08-23 03:00:00 TS 22.8012 86.0174 main 0 0 _________PO___ -1 22.9025 86.0349 TC 30 22.7000 86.0000 1 5 354
1880233N21089 1880 14 NI BB NOT_NAMED 1880-08-23 06:00:00 TS 22.9588 86.0225 main 0 0 _________OP___ -1 23.0000 86.1000 TC 30 22.9176 85.9450 1 3 2
1880233N21089 1880 14 NI BB NOT_NAMED 1880-08-23 09:00:00 TS 23.1049 86.0370 main 0 0 _________PP___ -1 23.1425 86.1075 TC 30 23.0672 85.9665 1 3 7
1880233N21089 1880 14 NI BB NOT_NAMED 1880-08-23 12:00:00 TS 23.2416 86.0649 main 0 0 _________OP___ -1 23.3000 86.1000 TC 30 23.1833 86.0297 1 3 12
1880233N21089 1880 14 NI BB NOT_NAMED 1880-08-23 15:00:00 TS 23.4000 86.0963 main 0 0 _________PO___ -1 23.5000 86.0925 TC 30 23.3000 86.1000 1 3 7
1880233N21089 1880 14 NI BB NOT_NAMED 1880-08-23 18:00:00 TS 23.5819 86.1105 main 0 0 _________OP___ -1 23.7000 86.1000 TC 30 23.4637 86.1210 1 3 7
1880233N21089 1880 14 NI BB NOT_NAMED 1880-08-23 21:00:00 TS 23.7425 86.1425 main 0 0 _________PP___ -1 23.8500 86.1425 TC 30 23.6350 86.1426 1 3 11
1880233N21089 1880 14 NI BB NOT_NAMED 1880-08-24 00:00:00 TS 23.9069 86.1839 main 0 0 _________OP___ -1 24.0000 86.2000 TC 30 23.8137 86.1679 1 4 13
1880233N21089 1880 14 NI BB NOT_NAMED 1880-08-24 03:00:00 TS 24.0962 86.2250 main 0 0 _________PO___ -1 24.1925 86.2500 TC 30 24.0000 86.2000 1 4 12
1880233N21089 1880 14 NI BB NOT_NAMED 1880-08-24 06:00:00 TS 24.2964 86.2694 main 0 0 _________OP___ -1 24.4000 86.3000 TC 30 24.1928 86.2388 1 4 12
1880233N21089 1880 14 NI BB NOT_NAMED 1880-08-24 09:00:00 TS 24.4962 86.3175 main 0 0 _________PP___ -1 24.6000 86.3500 TC 30 24.3925 86.2851 1 4 12
1880233N21089 1880 14 NI BB NOT_NAMED 1880-08-24 12:00:00 TS 24.6980 86.3694 main 0 0 _________OP___ -1 24.8000 86.4000 TC 30 24.5959 86.3388 1 4 13
1880233N21089 1880 14 NI BB NOT_NAMED 1880-08-24 15:00:00 TS 24.9000 86.4213 main 0 0 _________PO___ -1 25.0000 86.4426 TC 30 24.8000 86.4000 1 4 15
1880233N21089 1880 14 NI BB NOT_NAMED 1880-08-24 18:00:00 TS 25.0870 86.4819 main 0 0 _________OP___ -1 25.2000 86.5000 TC 30 25.0022 86.4683 1 4 18
1880233N21089 1880 14 NI BB NOT_NAMED 1880-08-24 21:00:00 TS 25.2815 86.5613 main 0 0 _________PP___ -1 25.4000 86.5899 TC 30 25.2025 86.5423 1 4 22
1880233N21089 1880 14 NI BB NOT_NAMED 1880-08-25 00:00:00 TS 25.4677 86.6467 main 0 0 _________OP___ -1 25.6000 86.7000 TC 30 25.4016 86.6201 1 3 22
1880233N21089 1880 14 NI BB NOT_NAMED 1880-08-25 03:00:00 NR 25.6000 86.7000 main 0 __________O___ -1 TC 25.6000 86.7000 1 3 15

IBTrACS Databaseについて

本データベースは、米国NOAAが公開する1842年以降の世界の熱帯低気圧のベストトラックデータアーカイブInternational Best Track Archive for Climate Stewardship (IBTrACS)を、ウェブで閲覧しやすい形式に変換したものです。

最終更新日:2021-12-01